Time;durP1;ratioP1;P1;durP2;ratioP2;P2;SDS_P1;SDS_P2;PMS_P1;PMS_P2;Temp;Humidity;BMP_temperature;BMP_pressure;BME280_temperature;BME280_humidity;BME280_pressure;Samples;Min_cycle;Max_cycle;Signal;HPM_P1;HPM_P2
2021/01/22 00:00:05;;;;;;;2.00;1.25;;;7.90;99.90;;;;;;4999776;28;20469;-79
2021/01/22 00:02:30;;;;;;;1.60;1.10;;;7.80;99.90;;;;;;4999830;28;20140;-78
2021/01/22 00:04:56;;;;;;;2.50;1.33;;;7.90;99.90;;;;;;4998017;28;20505;-83
2021/01/22 00:07:21;;;;;;;1.65;1.20;;;7.90;99.90;;;;;;4992909;28;20042;-79
2021/01/22 00:09:47;;;;;;;2.13;1.13;;;8.00;99.90;;;;;;4988193;28;20029;-80
2021/01/22 00:12:13;;;;;;;1.80;1.13;;;8.00;99.90;;;;;;4986870;28;20506;-76
2021/01/22 00:14:39;;;;;;;2.20;1.20;;;8.10;99.90;;;;;;4996624;28;20030;-75
2021/01/22 00:17:05;;;;;;;3.17;1.35;;;8.10;99.90;;;;;;4998304;28;20511;-76
2021/01/22 00:19:30;;;;;;;2.40;1.30;;;8.10;99.90;;;;;;4999127;28;20026;-75
2021/01/22 00:21:56;;;;;;;2.05;1.30;;;8.20;99.90;;;;;;4998948;28;20132;-75
2021/01/22 00:24:22;;;;;;;1.63;1.17;;;8.20;99.90;;;;;;4999024;28;20037;-75
2021/01/22 00:26:48;;;;;;;1.90;1.30;;;8.30;99.90;;;;;;4998472;28;20038;-76
2021/01/22 00:29:13;;;;;;;2.72;1.50;;;8.20;99.90;;;;;;4999069;28;20552;-75
2021/01/22 00:31:39;;;;;;;3.13;1.20;;;8.30;99.90;;;;;;4998535;28;20124;-76
2021/01/22 00:34:05;;;;;;;1.63;1.20;;;8.40;99.90;;;;;;4997591;28;20113;-77
2021/01/22 00:36:31;;;;;;;1.50;1.00;;;8.40;99.90;;;;;;4998138;28;20094;-78
2021/01/22 00:38:56;;;;;;;1.70;1.20;;;8.50;99.90;;;;;;4997362;28;20080;-81
2021/01/22 00:41:22;;;;;;;2.88;1.20;;;8.70;99.90;;;;;;4998636;28;20736;-79
2021/01/22 00:43:48;;;;;;;2.55;1.13;;;8.90;99.90;;;;;;4997919;28;20136;-78
2021/01/22 00:46:14;;;;;;;2.00;1.10;;;9.10;99.90;;;;;;4998585;28;20893;-80
2021/01/22 00:48:39;;;;;;;5.07;1.15;;;9.20;99.90;;;;;;4997483;28;20048;-78
2021/01/22 00:51:05;;;;;;;1.15;0.98;;;9.30;99.90;;;;;;4981647;28;20037;-80
2021/01/22 00:53:31;;;;;;;2.25;0.85;;;9.50;99.90;;;;;;4981041;28;20025;-78
2021/01/22 00:55:57;;;;;;;2.55;1.33;;;9.60;99.90;;;;;;4997363;28;20036;-79
2021/01/22 00:58:33;;;;;;;2.55;1.25;;;9.70;99.90;;;;;;4997068;28;20041;-77
2021/01/22 01:01:22;;;;;;;1.48;1.10;;;9.70;99.90;;;;;;4990145;28;20727;-81
2021/01/22 01:03:48;;;;;;;1.92;1.15;;;9.80;99.90;;;;;;4993885;28;20030;-83
2021/01/22 01:06:14;;;;;;;1.63;1.13;;;9.80;99.90;;;;;;4995601;28;20034;-81
2021/01/22 01:08:47;;;;;;;4.20;1.20;;;10.00;99.90;;;;;;4991814;28;20038;-79
2021/01/22 01:11:23;;;;;;;2.50;0.98;;;10.00;99.90;;;;;;4982262;28;20492;-78
2021/01/22 01:14:03;;;;;;;4.97;1.17;;;10.00;99.90;;;;;;4999064;28;20046;-81
2021/01/22 01:16:29;;;;;;;1.95;1.08;;;10.00;99.90;;;;;;4996180;28;20034;-77
2021/01/22 01:18:55;;;;;;;1.13;0.80;;;10.00;99.90;;;;;;4998817;28;20040;-77
2021/01/22 01:21:21;;;;;;;2.15;1.00;;;10.00;99.90;;;;;;4998606;28;20107;-77
2021/01/22 01:23:47;;;;;;;2.45;1.13;;;10.00;99.90;;;;;;4996507;28;20516;-77
2021/01/22 01:26:12;;;;;;;1.63;0.90;;;10.00;99.90;;;;;;4998039;28;20467;-77
2021/01/22 01:28:38;;;;;;;1.63;0.98;;;10.00;99.90;;;;;;4997291;28;20033;-77
2021/01/22 01:31:04;;;;;;;1.02;0.80;;;10.00;99.90;;;;;;4995741;28;20037;-78
2021/01/22 01:33:29;;;;;;;1.67;0.90;;;10.00;99.90;;;;;;4989555;28;20061;-76
2021/01/22 01:35:55;;;;;;;2.28;1.00;;;10.20;99.90;;;;;;4980129;28;20088;-76
2021/01/22 01:38:21;;;;;;;1.48;0.70;;;10.30;99.90;;;;;;4997031;28;20038;-77
2021/01/22 01:40:48;;;;;;;1.40;0.90;;;10.40;99.90;;;;;;4996440;28;20034;-77
2021/01/22 01:43:14;;;;;;;1.38;0.88;;;10.40;99.90;;;;;;4998063;28;20061;-78
2021/01/22 01:45:41;;;;;;;3.70;0.80;;;10.40;99.90;;;;;;4996066;28;20573;-76
2021/01/22 01:48:08;;;;;;;1.70;0.70;;;10.40;99.90;;;;;;4996308;28;20777;-79
2021/01/22 01:50:35;;;;;;;2.70;0.80;;;10.50;99.90;;;;;;4980269;28;20823;-76
2021/01/22 01:53:01;;;;;;;3.42;0.90;;;10.60;99.90;;;;;;4997115;28;20629;-77
2021/01/22 01:55:27;;;;;;;1.50;0.93;;;10.60;99.90;;;;;;4993177;28;20647;-75
2021/01/22 01:57:53;;;;;;;1.50;0.82;;;10.60;99.90;;;;;;5025309;28;20038;-76
2021/01/22 02:00:20;;;;;;;3.38;1.00;;;10.70;99.90;;;;;;4995138;28;20034;-75
2021/01/22 02:02:45;;;;;;;3.92;0.63;;;10.60;99.90;;;;;;4996745;28;20034;-75
2021/01/22 02:05:12;;;;;;;1.25;0.70;;;10.70;99.90;;;;;;4996987;28;20044;-77
2021/01/22 02:07:37;;;;;;;5.25;0.90;;;10.60;99.90;;;;;;4996028;28;20038;-76
2021/01/22 02:10:04;;;;;;;1.77;0.70;;;10.60;99.90;;;;;;4991661;28;20140;-76
2021/01/22 02:12:31;;;;;;;1.15;0.60;;;10.60;99.90;;;;;;4996087;28;20057;-75
2021/01/22 02:14:59;;;;;;;1.25;0.70;;;10.60;99.90;;;;;;4995958;28;20095;-77
2021/01/22 02:17:25;;;;;;;2.53;0.60;;;10.60;99.90;;;;;;4989811;28;20036;-78
2021/01/22 02:20:07;;;;;;;2.55;0.63;;;10.60;99.90;;;;;;4979886;28;20030;-76
2021/01/22 02:22:33;;;;;;;0.85;0.52;;;10.70;99.90;;;;;;4995819;28;20040;-77
2021/01/22 02:25:00;;;;;;;1.73;0.70;;;10.60;99.90;;;;;;4995759;28;20490;-75
2021/01/22 02:27:26;;;;;;;3.92;0.52;;;10.70;99.90;;;;;;4997639;28;20891;-76
2021/01/22 02:29:53;;;;;;;0.90;0.47;;;10.70;99.90;;;;;;4997397;28;20030;-74
2021/01/22 02:32:20;;;;;;;1.00;0.68;;;10.70;99.90;;;;;;4997689;28;20036;-72
2021/01/22 02:34:48;;;;;;;2.70;0.60;;;10.70;99.90;;;;;;4997546;28;20038;-72
2021/01/22 02:37:18;;;;;;;0.50;0.40;;;10.70;99.90;;;;;;4996233;28;20041;-71
2021/01/22 02:39:56;;;;;;;0.82;0.40;;;10.70;99.90;;;;;;5000140;28;20093;-72
2021/01/22 02:42:23;;;;;;;1.17;0.60;;;10.60;99.90;;;;;;5000759;28;20057;-72
2021/01/22 02:44:49;;;;;;;2.42;1.40;;;10.50;99.90;;;;;;5000399;28;20029;-73
2021/01/22 02:47:17;;;;;;;2.30;0.50;;;10.50;99.90;;;;;;4982785;28;20034;-73
2021/01/22 02:49:42;;;;;;;2.97;0.60;;;10.50;99.90;;;;;;5000294;28;20046;-73
2021/01/22 02:52:09;;;;;;;2.72;0.70;;;10.50;99.90;;;;;;5000446;28;20049;-75
2021/01/22 02:54:36;;;;;;;0.55;0.50;;;10.40;99.90;;;;;;5000966;28;20052;-73
2021/01/22 02:57:30;;;;;;;1.15;0.60;;;10.40;99.90;;;;;;5000163;28;20065;-74
2021/01/22 03:00:27;;;;;;;2.15;0.90;;;10.40;99.90;;;;;;4994126;28;20041;-73
2021/01/22 03:02:55;;;;;;;1.80;0.95;;;10.50;99.90;;;;;;4983522;28;20057;-73
2021/01/22 03:05:25;;;;;;;1.60;0.80;;;10.40;99.90;;;;;;4998882;28;20034;-73
2021/01/22 03:07:54;;;;;;;2.03;1.13;;;10.40;99.90;;;;;;5000539;28;20080;-73
2021/01/22 03:10:22;;;;;;;0.65;0.60;;;10.30;99.90;;;;;;5000216;28;20480;-75
2021/01/22 03:12:50;;;;;;;0.90;0.75;;;10.30;99.90;;;;;;4999711;28;20478;-72
2021/01/22 03:15:20;;;;;;;1.63;0.70;;;10.30;99.90;;;;;;4998593;28;20684;-73
2021/01/22 03:17:45;;;;;;;4.25;0.70;;;10.20;99.90;;;;;;4999190;28;20037;-73
2021/01/22 03:20:13;;;;;;;2.53;0.50;;;10.20;99.90;;;;;;5000454;28;20030;-79
2021/01/22 03:22:38;;;;;;;6.28;1.73;;;10.20;99.90;;;;;;5000057;28;20034;-75
2021/01/22 03:25:05;;;;;;;13.70;7.55;;;10.20;99.90;;;;;;4998707;28;20111;-78
2021/01/22 03:27:31;;;;;;;0.60;0.60;;;10.20;99.90;;;;;;4998327;28;20034;-71
2021/01/22 03:29:58;;;;;;;1.55;0.80;;;10.10;99.90;;;;;;4999657;28;20088;-71
2021/01/22 03:32:23;;;;;;;1.17;0.70;;;10.10;99.90;;;;;;4998302;28;20653;-72
2021/01/22 03:34:49;;;;;;;1.15;0.88;;;10.10;99.90;;;;;;4998456;28;20033;-72
2021/01/22 03:37:15;;;;;;;1.30;0.75;;;10.00;99.90;;;;;;4998460;28;20026;-72
2021/01/22 03:39:41;;;;;;;1.10;0.80;;;10.00;99.90;;;;;;4981363;28;20049;-73
2021/01/22 03:42:06;;;;;;;1.33;0.63;;;9.90;99.90;;;;;;4999440;28;20037;-71
2021/01/22 03:44:32;;;;;;;2.22;0.73;;;9.90;99.90;;;;;;4999436;28;20125;-72
2021/01/22 03:46:58;;;;;;;4.18;1.58;;;10.00;99.90;;;;;;4999226;28;20054;-73
2021/01/22 03:49:24;;;;;;;1.50;0.70;;;10.00;99.90;;;;;;4999200;28;20034;-72
2021/01/22 03:51:49;;;;;;;2.75;0.90;;;10.00;99.90;;;;;;4999629;28;20034;-75
2021/01/22 03:54:15;;;;;;;1.80;0.80;;;10.00;99.90;;;;;;4999265;28;20033;-72
2021/01/22 03:56:42;;;;;;;1.55;0.60;;;10.00;99.90;;;;;;4997963;28;20554;-72
2021/01/22 03:59:08;;;;;;;2.10;0.80;;;10.10;99.90;;;;;;4995244;28;20466;-77
2021/01/22 04:01:35;;;;;;;0.70;0.70;;;10.10;99.90;;;;;;4999812;28;20042;-73
2021/01/22 04:04:00;;;;;;;1.42;0.80;;;10.10;99.90;;;;;;4997995;28;20092;-73
2021/01/22 04:06:26;;;;;;;2.47;0.60;;;10.00;99.90;;;;;;4998666;28;20030;-72
2021/01/22 04:08:52;;;;;;;0.68;0.60;;;10.10;99.90;;;;;;4999149;28;20033;-75
2021/01/22 04:11:18;;;;;;;0.70;0.60;;;10.10;99.90;;;;;;4997142;28;20391;-75
2021/01/22 04:13:44;;;;;;;2.17;0.90;;;10.10;99.90;;;;;;4998862;28;20843;-73
2021/01/22 04:16:12;;;;;;;1.92;0.82;;;10.10;99.90;;;;;;4998400;28;20041;-72
2021/01/22 04:18:38;;;;;;;1.80;0.68;;;10.00;99.90;;;;;;4998738;28;20041;-78
2021/01/22 04:21:05;;;;;;;1.98;0.85;;;10.00;99.90;;;;;;4997871;28;20038;-74
2021/01/22 04:23:30;;;;;;;1.33;0.70;;;10.00;99.90;;;;;;4981032;28;20540;-71
2021/01/22 04:25:56;;;;;;;1.63;1.02;;;10.00;99.90;;;;;;4980762;28;20034;-73
2021/01/22 04:28:22;;;;;;;1.83;0.90;;;9.90;99.90;;;;;;4997096;28;20030;-76
2021/01/22 04:30:47;;;;;;;1.30;0.70;;;10.00;99.90;;;;;;4998780;28;20659;-75
2021/01/22 04:33:14;;;;;;;1.38;0.80;;;10.00;99.90;;;;;;4998433;28;20107;-76
2021/01/22 04:35:40;;;;;;;0.70;0.60;;;10.00;99.90;;;;;;4998355;28;20044;-76
2021/01/22 04:38:06;;;;;;;1.02;0.60;;;10.00;99.90;;;;;;4996667;28;20547;-75
2021/01/22 04:40:32;;;;;;;1.63;0.80;;;9.90;99.90;;;;;;4996147;28;20034;-75
2021/01/22 04:42:57;;;;;;;1.90;0.88;;;9.90;99.90;;;;;;4995574;28;20038;-76
2021/01/22 04:45:23;;;;;;;1.67;0.90;;;9.90;99.90;;;;;;4978879;28;20044;-75
2021/01/22 04:47:49;;;;;;;1.25;0.75;;;9.90;99.90;;;;;;4998422;28;20033;-75
2021/01/22 04:50:17;;;;;;;1.83;0.80;;;9.90;99.90;;;;;;4997358;28;20034;-74
2021/01/22 04:52:44;;;;;;;2.40;0.80;;;9.90;99.90;;;;;;4997170;28;20627;-77
2021/01/22 04:55:14;;;;;;;1.08;0.60;;;9.90;99.90;;;;;;4996654;28;20038;-74
2021/01/22 04:57:45;;;;;;;1.17;0.88;;;9.90;99.90;;;;;;4998576;28;20034;-75
2021/01/22 05:00:13;;;;;;;2.30;1.00;;;9.80;99.90;;;;;;4997334;28;20056;-73
2021/01/22 05:02:39;;;;;;;1.40;0.80;;;9.80;99.90;;;;;;4997919;28;20041;-74
2021/01/22 05:05:06;;;;;;;1.30;0.70;;;9.70;99.90;;;;;;4997958;28;20148;-74
2021/01/22 05:07:33;;;;;;;3.70;0.80;;;9.70;99.90;;;;;;4993970;28;20288;-75
2021/01/22 05:09:58;;;;;;;0.60;0.50;;;9.80;99.90;;;;;;4994251;28;20029;-74
2021/01/22 05:12:36;;;;;;;2.13;0.80;;;9.80;99.90;;;;;;4996448;28;20116;-72
2021/01/22 05:15:31;;;;;;;4.03;0.73;;;9.70;99.90;;;;;;4996570;28;20099;-74
2021/01/22 05:18:02;;;;;;;1.73;0.80;;;9.80;99.90;;;;;;4980600;28;20747;-74
2021/01/22 05:20:33;;;;;;;1.25;0.70;;;9.80;99.90;;;;;;4998181;28;20026;-74
2021/01/22 05:22:59;;;;;;;0.60;0.60;;;9.80;99.90;;;;;;4998173;28;20064;-75
2021/01/22 05:25:26;;;;;;;2.92;0.70;;;9.90;99.90;;;;;;5010099;28;20890;-75
2021/01/22 05:27:53;;;;;;;1.20;0.65;;;9.90;99.90;;;;;;4997859;28;20113;-75
2021/01/22 05:30:21;;;;;;;1.45;0.63;;;9.90;99.90;;;;;;4998230;28;20139;-75
2021/01/22 05:32:46;;;;;;;2.58;0.68;;;9.80;99.90;;;;;;4992560;28;20030;-75
2021/01/22 05:35:12;;;;;;;1.13;0.73;;;9.90;99.90;;;;;;4997227;28;20026;-75
2021/01/22 05:37:51;;;;;;;1.42;0.88;;;9.90;99.90;;;;;;4997043;28;20170;-75
2021/01/22 05:40:18;;;;;;;0.80;0.70;;;10.00;99.90;;;;;;4995995;28;20446;-76
2021/01/22 05:42:57;;;;;;;2.20;0.85;;;9.90;99.90;;;;;;4982302;28;20065;-75
2021/01/22 05:45:40;;;;;;;0.93;0.63;;;9.90;99.90;;;;;;4997858;28;20120;-75
2021/01/22 05:48:23;;;;;;;0.98;0.60;;;9.90;99.90;;;;;;4996770;28;20037;-74
2021/01/22 05:50:54;;;;;;;3.50;0.80;;;9.80;99.90;;;;;;4990183;28;20045;-75
2021/01/22 05:53:21;;;;;;;1.48;0.90;;;9.90;99.90;;;;;;4997361;28;20033;-75
2021/01/22 05:56:09;;;;;;;2.72;0.70;;;9.90;99.90;;;;;;4996090;28;20038;-76
2021/01/22 05:58:38;;;;;;;5.10;0.80;;;9.90;99.90;;;;;;4990514;28;20141;-75
2021/01/22 06:01:18;;;;;;;1.65;0.82;;;9.90;99.90;;;;;;4997682;28;20135;-75
2021/01/22 06:03:45;;;;;;;0.95;0.70;;;10.00;99.90;;;;;;4997685;28;20053;-75
2021/01/22 06:06:12;;;;;;;0.82;0.70;;;9.90;99.90;;;;;;4996339;28;20060;-75
2021/01/22 06:08:53;;;;;;;1.73;0.63;;;9.90;99.90;;;;;;5002359;28;20862;-75
2021/01/22 06:11:26;;;;;;;1.23;1.00;;;9.90;99.90;;;;;;5001208;28;20034;-74
2021/01/22 06:14:03;;;;;;;2.80;0.75;;;9.80;99.90;;;;;;4999615;28;20124;-74
2021/01/22 06:16:29;;;;;;;1.00;0.60;;;9.80;99.90;;;;;;5007661;28;20038;-75
2021/01/22 06:19:02;;;;;;;1.17;0.70;;;9.80;99.90;;;;;;5015879;28;20207;-75
2021/01/22 06:21:30;;;;;;;1.23;0.70;;;9.80;99.90;;;;;;4992021;28;20274;-74
2021/01/22 06:23:57;;;;;;;1.10;0.55;;;9.80;99.90;;;;;;5018281;28;20037;-74
2021/01/22 06:26:23;;;;;;;1.58;0.80;;;9.70;99.90;;;;;;5008660;28;20049;-73
2021/01/22 06:28:52;;;;;;;1.30;0.75;;;9.60;99.90;;;;;;5001213;28;20037;-74
2021/01/22 06:31:18;;;;;;;1.35;0.70;;;9.50;99.90;;;;;;5011252;28;20557;-75
2021/01/22 06:33:48;;;;;;;3.40;0.90;;;9.50;99.90;;;;;;5040388;28;20068;-74
2021/01/22 06:36:15;;;;;;;0.77;0.70;;;9.40;99.90;;;;;;5012378;28;20045;-75
2021/01/22 06:38:42;;;;;;;2.13;0.98;;;9.50;99.90;;;;;;5006224;28;20041;-74
2021/01/22 06:41:11;;;;;;;1.35;0.80;;;9.50;99.90;;;;;;5005868;28;20032;-74
2021/01/22 06:43:38;;;;;;;1.05;0.73;;;9.50;99.90;;;;;;5009539;28;20516;-74
2021/01/22 06:46:12;;;;;;;3.15;0.90;;;9.50;99.90;;;;;;5011743;28;20034;-73
2021/01/22 06:48:57;;;;;;;1.40;0.70;;;9.50;99.90;;;;;;4996240;28;20068;-76
2021/01/22 06:51:24;;;;;;;1.38;0.70;;;9.50;99.90;;;;;;5002646;28;20045;-77
2021/01/22 06:54:09;;;;;;;1.70;0.60;;;9.50;99.90;;;;;;5009936;28;20038;-76
2021/01/22 06:56:38;;;;;;;1.38;0.70;;;9.50;99.90;;;;;;5003648;28;20038;-76
2021/01/22 06:59:19;;;;;;;2.67;0.80;;;9.50;99.90;;;;;;5001116;28;20839;-76
2021/01/22 07:01:46;;;;;;;1.02;0.65;;;9.50;99.90;;;;;;5004764;28;20120;-77
2021/01/22 07:04:31;;;;;;;2.08;0.77;;;9.40;99.90;;;;;;5037117;28;20033;-80
2021/01/22 07:07:07;;;;;;;1.45;0.68;;;9.40;99.90;;;;;;4996110;28;20026;-77
2021/01/22 07:09:46;;;;;;;3.35;0.80;;;9.40;99.90;;;;;;5014593;28;20103;-76
2021/01/22 07:12:17;;;;;;;1.23;0.80;;;9.40;99.90;;;;;;5006996;28;20034;-77
2021/01/22 07:14:50;;;;;;;2.63;0.90;;;9.40;99.90;;;;;;5008756;28;20030;-76
2021/01/22 07:17:28;;;;;;;1.33;0.80;;;9.40;99.90;;;;;;5009947;28;20030;-75
2021/01/22 07:20:08;;;;;;;3.55;0.73;;;9.40;99.90;;;;;;4999382;28;20136;-75
2021/01/22 07:22:35;;;;;;;1.50;0.90;;;9.50;99.90;;;;;;4998107;28;20038;-74
2021/01/22 07:25:03;;;;;;;1.30;0.82;;;9.50;99.90;;;;;;4983821;28;20044;-76
2021/01/22 07:27:44;;;;;;;5.28;1.42;;;9.50;99.90;;;;;;5004482;28;20091;-75
2021/01/22 07:30:14;;;;;;;5.90;1.23;;;9.40;99.90;;;;;;5001758;28;20037;-75
2021/01/22 07:32:42;;;;;;;1.88;0.63;;;9.40;99.90;;;;;;5021495;28;20910;-75
2021/01/22 07:35:18;;;;;;;2.75;1.30;;;9.50;99.90;;;;;;5007266;28;20166;-73
2021/01/22 07:37:44;;;;;;;2.92;0.80;;;9.60;99.90;;;;;;5008182;28;20414;-75
2021/01/22 07:40:12;;;;;;;1.77;0.75;;;9.60;99.90;;;;;;4999015;28;20033;-75
2021/01/22 07:42:38;;;;;;;2.88;0.93;;;9.70;99.90;;;;;;4986406;28;20029;-76
2021/01/22 07:45:06;;;;;;;2.00;0.90;;;9.70;99.90;;;;;;4999451;28;20034;-77
2021/01/22 07:47:33;;;;;;;2.92;0.95;;;9.80;99.90;;;;;;5002057;28;20040;-73
2021/01/22 07:50:01;;;;;;;1.10;0.90;;;9.90;99.90;;;;;;4998320;28;20755;-75
2021/01/22 07:52:27;;;;;;;1.90;0.70;;;10.00;99.90;;;;;;5011689;28;20034;-76
2021/01/22 07:54:54;;;;;;;2.17;1.10;;;10.10;99.90;;;;;;5040716;28;20851;-77
2021/01/22 07:57:22;;;;;;;1.25;0.85;;;10.10;99.90;;;;;;5002924;28;20127;-81
2021/01/22 07:59:48;;;;;;;1.63;0.82;;;10.20;99.90;;;;;;5027744;28;20049;-78
2021/01/22 08:02:20;;;;;;;1.02;0.77;;;10.30;99.90;;;;;;5028566;28;20030;-75
2021/01/22 08:04:54;;;;;;;5.65;1.95;;;10.30;99.90;;;;;;4992573;28;20087;-74
2021/01/22 08:07:30;;;;;;;3.07;1.10;;;10.40;99.90;;;;;;5005484;28;20030;-76
2021/01/22 08:09:56;;;;;;;2.33;0.80;;;10.50;99.90;;;;;;4998802;28;20267;-77
2021/01/22 08:12:22;;;;;;;1.88;1.05;;;10.60;99.90;;;;;;5010816;28;20075;-77
2021/01/22 08:14:47;;;;;;;3.63;0.90;;;10.60;99.90;;;;;;5004079;28;20034;-76
2021/01/22 08:17:14;;;;;;;3.00;0.80;;;10.70;99.90;;;;;;4984998;28;20084;-76
2021/01/22 08:19:40;;;;;;;4.15;1.00;;;10.70;99.90;;;;;;5007594;28;20683;-77
2021/01/22 08:22:06;;;;;;;10.38;1.20;;;10.60;99.90;;;;;;5000252;28;20041;-76
2021/01/22 08:24:32;;;;;;;3.92;1.10;;;10.30;99.90;;;;;;5009067;28;20033;-77
2021/01/22 08:27:04;;;;;;;5.80;0.80;;;9.60;99.90;;;;;;4996955;28;20034;-78
2021/01/22 08:29:32;;;;;;;6.15;2.42;;;8.70;99.90;;;;;;4989819;28;20061;-78
2021/01/22 08:31:58;;;;;;;3.42;0.68;;;8.10;99.90;;;;;;4999886;28;20029;-79
2021/01/22 08:34:25;;;;;;;2.22;0.80;;;7.70;99.90;;;;;;4998855;28;20149;-81
2021/01/22 08:36:55;;;;;;;3.72;1.25;;;7.60;99.90;;;;;;4996438;28;20030;-80
2021/01/22 08:39:21;;;;;;;2.47;0.60;;;7.40;99.90;;;;;;4988378;28;20044;-79
2021/01/22 08:41:47;;;;;;;4.65;0.50;;;7.40;99.90;;;;;;5024652;28;20018;-80
2021/01/22 08:44:13;;;;;;;3.50;0.63;;;7.30;99.90;;;;;;5040906;28;20473;-80
2021/01/22 08:46:46;;;;;;;1.17;0.40;;;7.30;99.90;;;;;;4991025;28;20033;-79
2021/01/22 08:49:13;;;;;;;0.43;0.30;;;7.30;99.90;;;;;;4983832;28;20453;-79
2021/01/22 08:51:39;;;;;;;2.38;0.60;;;7.20;99.90;;;;;;4998924;28;20048;-78
2021/01/22 08:54:06;;;;;;;2.70;0.70;;;7.20;99.90;;;;;;4981586;28;20042;-79
2021/01/22 08:56:33;;;;;;;1.05;0.40;;;7.20;99.90;;;;;;5028902;28;20322;-79
2021/01/22 08:59:10;;;;;;;4.28;0.68;;;7.20;99.90;;;;;;5001906;28;20067;-78
2021/01/22 09:01:50;;;;;;;1.42;0.50;;;7.20;99.90;;;;;;4980917;28;20632;-81
2021/01/22 09:04:27;;;;;;;0.63;0.40;;;7.20;99.90;;;;;;4995625;28;20624;-81
2021/01/22 09:06:57;;;;;;;1.10;0.50;;;7.20;99.90;;;;;;5009867;28;20042;-86
2021/01/22 09:09:46;;;;;;;0.82;0.50;;;7.20;99.90;;;;;;5002947;28;20037;-78
2021/01/22 09:12:31;;;;;;;1.33;0.50;;;7.20;99.90;;;;;;5019704;28;20045;-78
2021/01/22 09:15:04;;;;;;;2.03;0.70;;;7.30;99.90;;;;;;5033126;28;20460;-78
2021/01/22 09:17:42;;;;;;;1.35;0.90;;;7.30;99.90;;;;;;5010629;28;20041;-78
2021/01/22 09:20:25;;;;;;;4.18;0.95;;;7.30;99.90;;;;;;4994638;28;20033;-78
2021/01/22 09:23:02;;;;;;;3.00;0.70;;;7.40;99.90;;;;;;4988914;28;20203;-79
2021/01/22 09:25:28;;;;;;;0.82;0.60;;;7.40;99.90;;;;;;4994819;28;20616;-79
2021/01/22 09:27:54;;;;;;;2.22;0.75;;;7.40;99.90;;;;;;5042578;28;20792;-78
2021/01/22 09:30:27;;;;;;;1.33;0.70;;;7.50;99.90;;;;;;4988584;28;20592;-72
2021/01/22 09:32:57;;;;;;;0.52;0.45;;;7.60;99.90;;;;;;5017711;28;20044;-81
2021/01/22 09:35:28;;;;;;;0.50;0.50;;;7.50;99.90;;;;;;4992907;28;20245;-79
2021/01/22 09:37:54;;;;;;;0.43;0.30;;;7.50;99.90;;;;;;4979951;28;20042;-81
2021/01/22 09:40:21;;;;;;;0.85;0.43;;;7.50;99.90;;;;;;4984973;28;20119;-81
2021/01/22 09:42:47;;;;;;;0.80;0.47;;;7.50;99.90;;;;;;4996062;28;20052;-80
2021/01/22 09:45:14;;;;;;;0.55;0.50;;;7.50;99.90;;;;;;4980766;28;20040;-76
2021/01/22 09:47:41;;;;;;;0.70;0.70;;;7.50;99.90;;;;;;4985290;28;20033;-81
2021/01/22 09:50:09;;;;;;;14.48;5.40;;;7.40;99.90;;;;;;4979757;28;20153;-79
2021/01/22 09:52:37;;;;;;;0.85;0.70;;;7.50;99.90;;;;;;4996540;28;20144;-79
2021/01/22 09:55:09;;;;;;;0.65;0.65;;;7.40;99.90;;;;;;4975691;28;20114;-78
2021/01/22 09:57:35;;;;;;;0.60;0.45;;;7.50;99.90;;;;;;4993646;28;20822;-78
2021/01/22 10:00:07;;;;;;;0.60;0.50;;;7.50;99.90;;;;;;5001225;28;20037;-78
2021/01/22 10:02:33;;;;;;;0.57;0.40;;;7.40;99.90;;;;;;5012090;28;20482;-78
2021/01/22 10:04:59;;;;;;;1.67;0.50;;;7.40;99.90;;;;;;5001903;28;20041;-78
2021/01/22 10:07:25;;;;;;;0.30;0.30;;;7.40;99.90;;;;;;5024464;28;20037;-79
2021/01/22 10:09:50;;;;;;;0.52;0.40;;;7.40;99.90;;;;;;5017056;28;20111;-78
2021/01/22 10:12:16;;;;;;;2.10;0.55;;;7.30;99.90;;;;;;5001323;28;20081;-77
2021/01/22 10:14:43;;;;;;;1.13;0.52;;;7.30;99.90;;;;;;5007427;28;20095;-77
2021/01/22 10:17:10;;;;;;;1.23;0.40;;;7.20;99.90;;;;;;4996551;28;20145;-76
2021/01/22 10:19:35;;;;;;;0.40;0.28;;;7.20;99.90;;;;;;5000803;28;20128;-77
2021/01/22 10:22:02;;;;;;;1.67;0.40;;;7.30;99.90;;;;;;4988281;28;20033;-76
2021/01/22 10:24:27;;;;;;;0.55;0.40;;;7.20;99.90;;;;;;5003803;28;20114;-76
2021/01/22 10:26:53;;;;;;;0.30;0.30;;;7.10;99.90;;;;;;5011718;28;20443;-77
2021/01/22 10:29:19;;;;;;;1.75;0.40;;;7.10;99.90;;;;;;5015139;28;20045;-76
2021/01/22 10:31:44;;;;;;;1.77;0.70;;;7.10;99.90;;;;;;4999584;28;20029;-78
2021/01/22 10:34:10;;;;;;;3.78;1.40;;;7.20;99.90;;;;;;5002910;28;20030;-78
2021/01/22 10:36:37;;;;;;;1.75;0.90;;;7.30;99.90;;;;;;4979161;28;20038;-79
2021/01/22 10:39:04;;;;;;;1.20;0.47;;;7.30;99.90;;;;;;5003361;28;20557;-80
2021/01/22 10:41:30;;;;;;;1.10;0.40;;;7.30;99.90;;;;;;5000199;28;20144;-79
2021/01/22 10:43:55;;;;;;;2.70;1.13;;;7.40;99.90;;;;;;5004973;28;20022;-79
2021/01/22 10:46:21;;;;;;;0.95;0.52;;;7.50;99.90;;;;;;4995408;28;20534;-77
2021/01/22 10:48:47;;;;;;;0.50;0.40;;;7.60;99.90;;;;;;5036147;28;20042;-77
2021/01/22 10:51:12;;;;;;;1.33;0.60;;;7.70;99.90;;;;;;4988819;28;20084;-76
2021/01/22 10:53:38;;;;;;;0.98;0.50;;;7.70;99.90;;;;;;4996512;28;20182;-77
2021/01/22 10:56:04;;;;;;;0.77;0.57;;;7.60;99.90;;;;;;5005567;28;20045;-77
2021/01/22 10:58:30;;;;;;;3.00;0.70;;;7.60;99.90;;;;;;4999899;28;20662;-79
2021/01/22 11:00:57;;;;;;;1.25;0.90;;;7.40;99.90;;;;;;5001881;28;20026;-79
2021/01/22 11:03:24;;;;;;;2.17;1.42;;;7.30;99.90;;;;;;4983550;28;20044;-78
2021/01/22 11:05:49;;;;;;;8.77;3.28;;;7.30;99.90;;;;;;5000849;28;20221;-77
2021/01/22 11:08:15;;;;;;;2.55;1.38;;;7.30;99.90;;;;;;5009760;28;20493;-77
2021/01/22 11:10:40;;;;;;;2.25;1.00;;;7.30;99.90;;;;;;5038360;28;20033;-79
2021/01/22 11:13:06;;;;;;;13.48;6.35;;;7.30;99.90;;;;;;4988781;28;20040;-80
2021/01/22 11:15:34;;;;;;;5.25;2.40;;;7.30;99.90;;;;;;5009788;28;20041;-80
2021/01/22 11:18:00;;;;;;;3.55;1.73;;;7.30;99.90;;;;;;4998649;28;20143;-78
2021/01/22 11:20:26;;;;;;;3.10;1.08;;;7.20;99.90;;;;;;4993581;28;20045;-79
2021/01/22 11:22:52;;;;;;;5.82;2.42;;;7.10;99.90;;;;;;4982900;28;20341;-78
2021/01/22 11:25:18;;;;;;;1.85;1.23;;;7.10;99.90;;;;;;5009593;28;20044;-77
2021/01/22 11:27:44;;;;;;;2.28;0.93;;;7.00;99.90;;;;;;5012167;28;20030;-77
2021/01/22 11:30:11;;;;;;;1.45;0.73;;;6.90;99.90;;;;;;5003762;28;20773;-77
2021/01/22 11:32:37;;;;;;;1.88;1.02;;;7.10;99.90;;;;;;4999689;28;20668;-77
2021/01/22 11:35:05;;;;;;;2.63;0.95;;;7.20;99.90;;;;;;4993391;28;20033;-77
2021/01/22 11:37:30;;;;;;;3.15;0.80;;;7.20;99.90;;;;;;4985374;28;20038;-78
2021/01/22 11:39:56;;;;;;;1.70;0.70;;;7.20;99.90;;;;;;5011745;28;20046;-77
2021/01/22 11:42:22;;;;;;;2.67;0.80;;;7.20;99.90;;;;;;5009857;28;20042;-77
2021/01/22 11:44:48;;;;;;;1.98;0.60;;;7.20;99.90;;;;;;5027403;28;20477;-79
2021/01/22 11:47:14;;;;;;;2.20;0.90;;;7.30;99.90;;;;;;5008516;28;20030;-77
2021/01/22 11:49:40;;;;;;;0.98;0.75;;;7.30;99.90;;;;;;4997900;28;20502;-77
2021/01/22 11:52:06;;;;;;;2.92;0.70;;;7.30;99.90;;;;;;4998536;28;20041;-76
2021/01/22 11:54:32;;;;;;;2.05;0.73;;;7.20;99.90;;;;;;5000413;28;20041;-76
2021/01/22 11:56:58;;;;;;;2.47;0.90;;;7.30;99.90;;;;;;5002857;28;20048;-76
2021/01/22 11:59:24;;;;;;;3.45;0.98;;;7.30;99.90;;;;;;5011467;28;20033;-76
2021/01/22 12:01:49;;;;;;;3.42;1.20;;;7.40;99.90;;;;;;5008858;28;20711;-77
2021/01/22 12:04:15;;;;;;;4.95;2.10;;;7.40;99.90;;;;;;5000122;28;20037;-77
2021/01/22 12:06:41;;;;;;;4.28;1.83;;;7.40;99.90;;;;;;4997981;28;20059;-77
2021/01/22 12:09:07;;;;;;;4.88;1.83;;;7.30;99.90;;;;;;4990372;28;20080;-77
2021/01/22 12:11:33;;;;;;;1.80;1.00;;;7.40;99.90;;;;;;4995959;28;20041;-76
2021/01/22 12:13:59;;;;;;;4.60;0.93;;;7.50;99.90;;;;;;4989759;28;20092;-78
2021/01/22 12:16:25;;;;;;;12.98;5.50;;;7.60;99.90;;;;;;5007420;28;20041;-78
2021/01/22 12:18:51;;;;;;;3.70;1.50;;;7.50;99.90;;;;;;5005702;28;20036;-76
2021/01/22 12:21:17;;;;;;;3.58;0.88;;;7.40;99.90;;;;;;4981812;28;20794;-77
2021/01/22 12:23:43;;;;;;;1.45;0.57;;;7.50;99.90;;;;;;4998894;28;20026;-77
2021/01/22 12:26:10;;;;;;;1.08;0.60;;;7.70;99.90;;;;;;5011091;28;20056;-77
2021/01/22 12:28:37;;;;;;;2.75;0.70;;;7.60;99.90;;;;;;5004752;28;20030;-77
2021/01/22 12:31:03;;;;;;;4.45;0.80;;;7.50;99.90;;;;;;5007382;28;20629;-76
2021/01/22 12:33:29;;;;;;;2.78;1.80;;;7.40;99.90;;;;;;4981067;28;20040;-76
2021/01/22 12:35:55;;;;;;;3.70;0.85;;;7.30;99.90;;;;;;4998445;28;20030;-76
2021/01/22 12:38:21;;;;;;;2.80;0.88;;;7.30;99.90;;;;;;4999680;28;20536;-77
2021/01/22 12:40:46;;;;;;;2.60;0.70;;;7.50;99.90;;;;;;5009092;28;20136;-76
2021/01/22 12:43:12;;;;;;;3.17;0.85;;;7.60;99.90;;;;;;4992989;28;20112;-76
2021/01/22 12:45:38;;;;;;;0.98;0.70;;;7.60;99.90;;;;;;5004323;28;20033;-77
2021/01/22 12:48:04;;;;;;;3.20;0.98;;;7.60;99.90;;;;;;5012990;28;20037;-77
2021/01/22 12:50:33;;;;;;;6.63;3.08;;;7.60;99.90;;;;;;5007441;28;20067;-76
2021/01/22 12:52:59;;;;;;;1.77;0.90;;;7.50;99.90;;;;;;5006781;28;20030;-75
2021/01/22 12:55:25;;;;;;;1.58;0.73;;;7.60;99.90;;;;;;5013302;28;20026;-76
2021/01/22 12:57:52;;;;;;;4.15;0.70;;;7.60;99.90;;;;;;5001898;28;20037;-76